Bodajbo, Russia
Current Conditions -  °F | °C
As of 1:00 PM on Sunday 23 Nov 2014 (Local Time) from UIAA Reporting Station
Clear Clear  
Wind Chill:   Ceiling: Unl
Heat Index: 18°   Visibility: 6mi
Dew Point:   Wind: 7mph
Humidity: 58%   Direction: 200°SSW
Pressure: 30.06"   Gusts: NA
Location:  57.85°N, 114.19°E
Report Text: UIAA 230500Z 20003MPS 9999 SKC M08/M15 Q1018 NOSIG RMK QFE70429CLRD70
Loading
Personal Weather Stations






























Interactive Weather Map New forecast layout! Learn more

10-Day Weather Forecast

Advertisements
Track Severe Weather on mobile